createdAt,value
2023-04-12T00:03:56.657Z,9.27
2023-04-12T00:09:18.477Z,7.80
2023-04-12T00:14:39.978Z,13.50
2023-04-12T00:20:02.231Z,8.97
2023-04-12T00:25:23.678Z,10.00
2023-04-12T00:30:46.086Z,11.20
2023-04-12T00:36:08.027Z,8.93
2023-04-12T00:41:29.537Z,8.90
2023-04-12T00:46:51.572Z,12.13
2023-04-12T00:52:15.807Z,8.67
2023-04-12T00:57:41.241Z,8.60
2023-04-12T01:03:05.490Z,8.50
2023-04-12T01:08:53.773Z,9.90
2023-04-12T01:14:34.246Z,11.57
2023-04-12T01:20:14.099Z,8.37
2023-04-12T01:25:49.010Z,7.63
2023-04-12T01:31:13.139Z,9.17
2023-04-12T01:36:36.722Z,7.53
2023-04-12T01:41:57.979Z,8.07
2023-04-12T01:47:19.539Z,7.87
2023-04-12T01:52:52.840Z,8.40
2023-04-12T01:58:19.625Z,8.57
2023-04-12T02:03:42.883Z,7.23
2023-04-12T02:09:06.506Z,10.53
2023-04-12T02:14:28.689Z,11.13
2023-04-12T02:19:49.930Z,10.20
2023-04-12T02:25:14.036Z,8.93
2023-04-12T02:30:38.557Z,7.80
2023-04-12T02:36:02.805Z,12.93
2023-04-12T02:41:24.946Z,10.03
2023-04-12T02:46:47.639Z,7.20
2023-04-12T02:52:10.647Z,7.93
2023-04-12T02:57:39.911Z,8.00
2023-04-12T03:03:03.883Z,8.67
2023-04-12T03:08:26.693Z,14.03
2023-04-12T03:13:51.142Z,12.20
2023-04-12T03:19:13.352Z,7.43
2023-04-12T03:24:35.679Z,8.17
2023-04-12T03:29:57.643Z,9.90
2023-04-12T03:35:19.746Z,13.47
2023-04-12T03:40:41.255Z,9.50
2023-04-12T03:46:07.040Z,10.87
2023-04-12T03:51:30.887Z,10.90
2023-04-12T03:56:57.764Z,12.13
2023-04-12T04:02:40.622Z,6.87
2023-04-12T04:08:03.121Z,10.40
2023-04-12T04:13:32.042Z,7.63
2023-04-12T04:18:57.835Z,5.50
2023-04-12T04:24:19.540Z,9.40
2023-04-12T04:29:45.741Z,10.23
2023-04-12T04:35:10.103Z,7.70
2023-04-12T04:40:44.167Z,7.90
2023-04-12T04:46:07.211Z,9.97
2023-04-12T04:51:28.728Z,7.63
2023-04-12T04:56:52.311Z,11.47
2023-04-12T05:02:16.698Z,9.90
2023-04-12T05:07:39.465Z,9.40
2023-04-12T05:13:01.355Z,11.30
2023-04-12T05:18:23.345Z,10.37
2023-04-12T05:23:47.296Z,10.07
2023-04-12T05:29:08.821Z,6.40
2023-04-12T05:34:30.543Z,11.73
2023-04-12T05:39:52.132Z,5.47
2023-04-12T05:45:13.695Z,7.47
2023-04-12T05:50:37.309Z,6.93
2023-04-12T05:55:59.225Z,11.53
2023-04-12T06:01:21.376Z,5.87
2023-04-12T06:06:43.728Z,7.23
2023-04-12T06:12:05.161Z,7.13
2023-04-12T06:17:30.231Z,9.47
2023-04-12T06:22:51.857Z,7.10
2023-04-12T06:28:13.631Z,5.73
2023-04-12T06:33:38.916Z,7.10
2023-04-12T06:39:04.237Z,5.93
2023-04-12T06:44:27.284Z,13.77
2023-04-12T06:49:49.056Z,7.23
2023-04-12T06:55:10.891Z,5.83
2023-04-12T07:00:32.448Z,8.37
2023-04-12T07:05:56.901Z,5.77
2023-04-12T07:11:21.531Z,6.23
2023-04-12T07:16:46.562Z,5.17
2023-04-12T07:22:08.487Z,7.00
2023-04-12T07:27:29.726Z,10.53
2023-04-12T07:32:51.256Z,5.30
2023-04-12T07:38:13.328Z,9.63
2023-04-12T07:43:35.611Z,4.37
2023-04-12T07:48:57.067Z,2.33
2023-04-12T07:54:18.768Z,4.77
2023-04-12T07:59:40.252Z,3.87
2023-04-12T08:05:01.992Z,8.07
2023-04-12T08:10:23.585Z,6.40
2023-04-12T08:15:47.339Z,5.83
2023-04-12T08:21:09.092Z,3.53
2023-04-12T08:26:30.704Z,2.60
2023-04-12T08:31:53.940Z,4.47
2023-04-12T08:37:17.099Z,4.03
2023-04-12T08:42:39.445Z,2.80
2023-04-12T08:48:03.341Z,7.80
2023-04-12T08:53:24.999Z,5.60
2023-04-12T08:58:50.724Z,2.37
2023-04-12T09:04:12.879Z,5.43
2023-04-12T09:09:50.919Z,3.87
2023-04-12T09:15:14.619Z,5.93
2023-04-12T09:20:37.347Z,5.43
2023-04-12T09:25:58.808Z,5.83
2023-04-12T09:31:20.088Z,3.37
2023-04-12T09:36:42.060Z,4.37
2023-04-12T09:42:18.017Z,7.90
2023-04-12T09:47:49.586Z,1.90
2023-04-12T09:53:18.509Z,4.03
2023-04-12T09:58:40.518Z,4.80
2023-04-12T10:04:02.827Z,3.27
2023-04-12T10:09:24.375Z,5.97
2023-04-12T10:14:47.512Z,3.57
2023-04-12T10:20:10.194Z,4.37
2023-04-12T10:25:32.077Z,3.53
2023-04-12T10:30:58.176Z,3.77
2023-04-12T10:36:19.507Z,4.53
2023-04-12T10:42:21.579Z,3.97
2023-04-12T10:47:49.371Z,4.63
2023-04-12T10:53:13.494Z,3.13
2023-04-12T10:58:50.784Z,4.13
2023-04-12T11:04:18.491Z,7.37
2023-04-12T11:10:02.745Z,3.17
2023-04-12T11:15:29.063Z,2.37
2023-04-12T11:20:53.701Z,5.53
2023-04-12T11:26:21.333Z,5.20
2023-04-12T11:31:42.544Z,3.70
2023-04-12T11:37:08.247Z,3.07
2023-04-12T11:42:30.131Z,3.47
2023-04-12T11:47:52.339Z,1.80
2023-04-12T11:53:14.144Z,5.87
2023-04-12T11:58:35.298Z,7.60
2023-04-12T12:03:57.774Z,5.57
2023-04-12T12:09:19.389Z,4.30
2023-04-12T12:14:43.702Z,3.47
2023-04-12T12:20:05.703Z,4.10
2023-04-12T12:25:29.205Z,7.20
2023-04-12T12:30:54.056Z,3.07
2023-04-12T12:36:21.032Z,3.83
2023-04-12T12:41:42.700Z,3.73
2023-04-12T12:47:13.579Z,3.27
2023-04-12T12:52:36.298Z,2.33
2023-04-12T12:58:06.728Z,4.37
2023-04-12T13:03:29.628Z,3.23
2023-04-12T13:08:52.366Z,4.27
2023-04-12T13:14:13.968Z,3.63
2023-04-12T13:19:36.039Z,2.93
2023-04-12T13:24:57.103Z,5.73
2023-04-12T13:30:19.628Z,5.00
2023-04-12T13:35:41.036Z,4.67
2023-04-12T13:41:02.386Z,3.80
2023-04-12T13:46:24.108Z,3.20
2023-04-12T13:51:45.728Z,2.80
2023-04-12T13:57:08.166Z,3.53
2023-04-12T14:02:31.471Z,4.20
2023-04-12T14:07:53.756Z,3.10
2023-04-12T14:13:15.284Z,3.53
2023-04-12T14:18:36.567Z,3.33
2023-04-12T14:23:57.968Z,3.73
2023-04-12T14:29:19.334Z,5.90
2023-04-12T14:34:42.997Z,2.50
2023-04-12T14:40:06.737Z,2.90
2023-04-12T14:45:28.043Z,3.60
2023-04-12T14:50:49.649Z,3.23
2023-04-12T14:56:28.375Z,2.60
2023-04-12T15:01:56.715Z,4.50
2023-04-12T15:07:18.093Z,5.53
2023-04-12T15:12:39.698Z,3.83
2023-04-12T15:18:03.322Z,3.80
2023-04-12T15:23:24.801Z,3.57
2023-04-12T15:28:46.304Z,4.33
2023-04-12T15:34:07.768Z,4.53
2023-04-12T15:39:29.386Z,5.93
2023-04-12T15:44:51.204Z,4.17
2023-04-12T15:50:13.275Z,3.83
2023-04-12T15:55:35.043Z,4.33
2023-04-12T16:00:56.307Z,4.70
2023-04-12T16:06:22.046Z,4.27
2023-04-12T16:11:44.191Z,2.20
2023-04-12T16:17:06.346Z,3.63
2023-04-12T16:22:27.832Z,2.60
2023-04-12T16:27:49.500Z,2.73
2023-04-12T16:33:11.075Z,3.80
2023-04-12T16:38:32.645Z,3.53
2023-04-12T16:43:55.551Z,3.40
2023-04-12T16:49:19.682Z,2.70
2023-04-12T16:54:41.586Z,5.10
2023-04-12T17:00:06.224Z,3.30
2023-04-12T17:05:27.791Z,3.23
2023-04-12T17:10:49.633Z,2.40
2023-04-12T17:16:11.222Z,3.33
2023-04-12T17:21:41.019Z,2.70
2023-04-12T17:27:02.845Z,2.20
2023-04-12T17:32:24.335Z,2.57
2023-04-12T17:37:46.192Z,3.33
2023-04-12T17:43:07.876Z,2.03
2023-04-12T17:48:32.716Z,2.70
2023-04-12T17:53:56.579Z,5.03
2023-04-12T17:59:18.437Z,2.47
2023-04-12T18:04:41.324Z,1.73
2023-04-12T18:10:03.379Z,1.83
2023-04-12T18:15:24.713Z,2.80
2023-04-12T18:20:45.864Z,2.63
2023-04-12T18:26:07.329Z,2.83
2023-04-12T18:31:28.823Z,3.30
2023-04-12T18:36:50.408Z,2.97
2023-04-12T18:42:11.958Z,3.03
2023-04-12T18:47:33.650Z,2.27
2023-04-12T18:52:55.152Z,2.63
2023-04-12T18:58:17.130Z,3.30
2023-04-12T19:03:38.879Z,2.60
2023-04-12T19:09:00.610Z,3.20
2023-04-12T19:14:22.434Z,2.63
2023-04-12T19:19:43.828Z,2.30
2023-04-12T19:25:05.676Z,2.93
2023-04-12T19:30:28.910Z,2.93
2023-04-12T19:35:51.847Z,2.77
2023-04-12T19:41:13.515Z,2.60
2023-04-12T19:46:39.029Z,2.73
2023-04-12T19:52:00.711Z,2.00
2023-04-12T19:57:23.007Z,2.37
2023-04-12T20:02:44.674Z,3.40
2023-04-12T20:08:06.191Z,3.53
2023-04-12T20:13:28.857Z,2.77
2023-04-12T20:18:55.771Z,2.73
2023-04-12T20:24:17.092Z,2.53
2023-04-12T20:29:39.724Z,3.37
2023-04-12T20:35:02.820Z,4.67
2023-04-12T20:40:27.238Z,2.83
2023-04-12T20:45:49.013Z,1.60
2023-04-12T20:51:16.974Z,2.13
2023-04-12T20:56:39.141Z,1.60
2023-04-12T21:02:03.965Z,1.87
2023-04-12T21:07:26.280Z,1.30
2023-04-12T21:12:47.657Z,2.30
2023-04-12T21:18:09.331Z,2.17
2023-04-12T21:23:30.672Z,1.10
2023-04-12T21:28:52.273Z,1.60
2023-04-12T21:34:13.793Z,2.70
2023-04-12T21:39:38.500Z,1.20
2023-04-12T21:44:59.977Z,1.90
2023-04-12T21:50:21.289Z,2.23
2023-04-12T21:55:42.830Z,2.53
2023-04-12T22:01:04.584Z,2.97
2023-04-12T22:06:26.320Z,1.80
2023-04-12T22:11:49.171Z,2.77
2023-04-12T22:17:10.689Z,4.07
2023-04-12T22:22:32.473Z,2.03
2023-04-12T22:27:57.864Z,3.23
2023-04-12T22:33:19.042Z,1.90
2023-04-12T22:38:40.245Z,2.27
2023-04-12T22:44:01.864Z,2.40
2023-04-12T22:49:30.860Z,2.97
2023-04-12T22:54:52.290Z,2.30
2023-04-12T23:00:16.950Z,3.50
2023-04-12T23:05:39.024Z,2.00
2023-04-12T23:11:03.625Z,3.70
2023-04-12T23:16:25.768Z,3.33
2023-04-12T23:21:47.172Z,2.33
2023-04-12T23:27:09.744Z,3.87
2023-04-12T23:32:30.945Z,3.43
2023-04-12T23:37:53.551Z,4.77
2023-04-12T23:43:14.766Z,2.50
2023-04-12T23:48:36.392Z,2.60
2023-04-12T23:53:58.081Z,4.77
2023-04-12T23:59:19.849Z,2.83
